THA785 LSGG-EDDH
Flight info
| Callsign | THA785 |
|---|---|
| Flight time | 1h 20m |
| Altitude | 38000 |
| Route | SOSAL1N/04 SOSAL N871 KORED DCT BERSU DCT DITON/N0472F390 DCT LOKTA DCT TEDGO DCT HAREM DCT LOHRE DCT MASEK DCT ELNAT/N0474F400 P605 NOLGO NOLGO3S |
| Aircraft | B772/H-SDE2E3FGHIJ5LORVWXY/LB1D1 |
Departure
| Time | 2026-04-25 20:21 |
|---|---|
| Airport | Geneva International Airport (LSGG) |
Arrival
| Time | 2026-04-25 21:41 |
|---|---|
| Airport | Hamburg Helmut Schmidt Airport (EDDH) |
| Time | Latitude | Longitude | Altitude | Speed | Heading |
|---|---|---|---|---|---|
| 2026-04-25 19:46 | 46.23438 | 6.11108 | 1405 ft | 0 kts | 135° |
| 2026-04-25 20:05 | 46.23449 | 6.11092 | 1408 ft | 4 kts | 135° |
| 2026-04-25 20:05 | 46.23464 | 6.11070 | 1405 ft | 4 kts | 138° |
| 2026-04-25 20:06 | 46.23485 | 6.11053 | 1408 ft | 4 kts | 184° |
| 2026-04-25 20:06 | 46.23506 | 6.11066 | 1408 ft | 3 kts | 225° |
| 2026-04-25 20:06 | 46.23525 | 6.11093 | 1408 ft | 4 kts | 225° |
| 2026-04-25 20:06 | 46.23537 | 6.11112 | 1408 ft | 0 kts | 225° |
| 2026-04-25 20:09 | 46.23536 | 6.11110 | 1408 ft | 2 kts | 225° |
| 2026-04-25 20:09 | 46.23526 | 6.11095 | 1408 ft | 2 kts | 227° |
| 2026-04-25 20:09 | 46.23505 | 6.11051 | 1408 ft | 8 kts | 238° |
| 2026-04-25 20:10 | 46.23488 | 6.11006 | 1405 ft | 8 kts | 241° |
| 2026-04-25 20:10 | 46.23450 | 6.10924 | 1405 ft | 8 kts | 211° |
| 2026-04-25 20:10 | 46.23416 | 6.10902 | 1404 ft | 2 kts | 204° |
| 2026-04-25 20:10 | 46.23402 | 6.10893 | 1403 ft | 2 kts | 204° |
| 2026-04-25 20:11 | 46.23388 | 6.10882 | 1404 ft | 4 kts | 210° |
| 2026-04-25 20:11 | 46.23361 | 6.10847 | 1402 ft | 6 kts | 231° |
| 2026-04-25 20:11 | 46.23359 | 6.10793 | 1405 ft | 6 kts | 293° |
| 2026-04-25 20:11 | 46.23386 | 6.10751 | 1406 ft | 6 kts | 315° |
| 2026-04-25 20:12 | 46.23413 | 6.10709 | 1407 ft | 6 kts | 306° |
| 2026-04-25 20:12 | 46.23408 | 6.10657 | 1407 ft | 6 kts | 227° |
| 2026-04-25 20:12 | 46.23380 | 6.10616 | 1402 ft | 6 kts | 225° |
| 2026-04-25 20:12 | 46.23362 | 6.10588 | 1402 ft | 6 kts | 225° |
| 2026-04-25 20:13 | 46.23324 | 6.10533 | 1406 ft | 6 kts | 226° |
| 2026-04-25 20:13 | 46.23281 | 6.10469 | 1407 ft | 11 kts | 226° |
| 2026-04-25 20:13 | 46.23227 | 6.10388 | 1408 ft | 11 kts | 226° |
| 2026-04-25 20:13 | 46.23172 | 6.10307 | 1403 ft | 11 kts | 226° |
| 2026-04-25 20:14 | 46.23119 | 6.10223 | 1409 ft | 11 kts | 229° |
| 2026-04-25 20:14 | 46.23065 | 6.10139 | 1406 ft | 13 kts | 225° |
| 2026-04-25 20:14 | 46.22983 | 6.10020 | 1408 ft | 17 kts | 225° |
| 2026-04-25 20:14 | 46.22898 | 6.09895 | 1410 ft | 17 kts | 226° |
| 2026-04-25 20:15 | 46.22814 | 6.09770 | 1407 ft | 17 kts | 226° |
| 2026-04-25 20:15 | 46.22729 | 6.09647 | 1408 ft | 17 kts | 225° |
| 2026-04-25 20:15 | 46.22645 | 6.09525 | 1410 ft | 17 kts | 225° |
| 2026-04-25 20:15 | 46.22570 | 6.09391 | 1412 ft | 17 kts | 244° |
| 2026-04-25 20:16 | 46.22552 | 6.09277 | 1417 ft | 0 kts | 267° |
| 2026-04-25 20:18 | 46.22565 | 6.09193 | 1421 ft | 13 kts | 305° |
| 2026-04-25 20:19 | 46.22643 | 6.09183 | 1424 ft | 13 kts | 44° |
| 2026-04-25 20:19 | 46.22656 | 6.09203 | 1424 ft | 0 kts | 47° |
| 2026-04-25 20:20 | 46.22798 | 6.09420 | 1425 ft | 68 kts | 46° |
| 2026-04-25 20:20 | 46.23321 | 6.10187 | 1412 ft | 143 kts | 44° |
| 2026-04-25 20:21 | 46.24074 | 6.11277 | 1963 ft | 152 kts | 46° |
| 2026-04-25 20:21 | 46.24832 | 6.12394 | 2775 ft | 158 kts | 44° |
| 2026-04-25 20:21 | 46.25623 | 6.13567 | 3379 ft | 172 kts | 44° |
| 2026-04-25 20:21 | 46.26527 | 6.14902 | 3612 ft | 199 kts | 44° |
| 2026-04-25 20:22 | 46.27571 | 6.16441 | 3807 ft | 228 kts | 45° |
| 2026-04-25 20:22 | 46.28335 | 6.17566 | 3959 ft | 247 kts | 45° |
| 2026-04-25 20:22 | 46.29996 | 6.20012 | 4836 ft | 260 kts | 46° |
| 2026-04-25 20:22 | 46.31280 | 6.21899 | 5607 ft | 265 kts | 46° |
| 2026-04-25 20:23 | 46.32582 | 6.23810 | 6390 ft | 271 kts | 47° |
| 2026-04-25 20:23 | 46.33918 | 6.25771 | 7098 ft | 276 kts | 46° |
| 2026-04-25 20:23 | 46.35266 | 6.27752 | 7893 ft | 278 kts | 45° |
| 2026-04-25 20:23 | 46.36589 | 6.29795 | 8565 ft | 278 kts | 53° |
| 2026-04-25 20:24 | 46.37372 | 6.32373 | 9016 ft | 284 kts | 74° |
| 2026-04-25 20:24 | 46.37894 | 6.35187 | 9599 ft | 292 kts | 73° |
| 2026-04-25 20:24 | 46.38444 | 6.38023 | 10360 ft | 295 kts | 73° |
| 2026-04-25 20:24 | 46.39026 | 6.40972 | 10873 ft | 308 kts | 72° |
| 2026-04-25 20:25 | 46.39632 | 6.44026 | 11123 ft | 334 kts | 72° |
| 2026-04-25 20:25 | 46.40305 | 6.47403 | 11120 ft | 358 kts | 73° |
| 2026-04-25 20:25 | 46.40995 | 6.50871 | 11115 ft | 360 kts | 73° |
| 2026-04-25 20:25 | 46.41692 | 6.54374 | 11112 ft | 362 kts | 73° |
| 2026-04-25 20:26 | 46.42384 | 6.57845 | 11105 ft | 361 kts | 73° |
| 2026-04-25 20:26 | 46.43084 | 6.61367 | 11104 ft | 360 kts | 72° |
| 2026-04-25 20:26 | 46.43776 | 6.64850 | 11122 ft | 361 kts | 73° |
| 2026-04-25 20:26 | 46.44585 | 6.68293 | 11595 ft | 362 kts | 62° |
| 2026-04-25 20:27 | 46.46061 | 6.71213 | 12247 ft | 361 kts | 47° |
| 2026-04-25 20:27 | 46.47724 | 6.73987 | 13273 ft | 366 kts | 48° |
| 2026-04-25 20:27 | 46.49349 | 6.76826 | 14363 ft | 367 kts | 49° |
| 2026-04-25 20:27 | 46.50974 | 6.79720 | 15021 ft | 372 kts | 49° |
| 2026-04-25 20:28 | 46.52611 | 6.82657 | 15119 ft | 376 kts | 49° |
| 2026-04-25 20:28 | 46.54258 | 6.85618 | 15316 ft | 380 kts | 49° |
| 2026-04-25 20:28 | 46.55922 | 6.88613 | 16383 ft | 381 kts | 49° |
| 2026-04-25 20:28 | 46.57585 | 6.91605 | 17532 ft | 382 kts | 48° |
| 2026-04-25 20:29 | 46.59263 | 6.94621 | 18546 ft | 386 kts | 48° |
| 2026-04-25 20:29 | 46.60944 | 6.97643 | 19331 ft | 393 kts | 48° |
| 2026-04-25 20:29 | 46.62702 | 7.00808 | 20136 ft | 400 kts | 48° |
| 2026-04-25 20:29 | 46.64455 | 7.03976 | 20951 ft | 405 kts | 48° |
| 2026-04-25 20:30 | 46.66236 | 7.07193 | 21767 ft | 411 kts | 48° |
| 2026-04-25 20:30 | 46.68015 | 7.10411 | 22587 ft | 416 kts | 48° |
| 2026-04-25 20:30 | 46.69838 | 7.13713 | 23396 ft | 422 kts | 48° |
| 2026-04-25 20:30 | 46.71691 | 7.17073 | 24109 ft | 428 kts | 48° |
| 2026-04-25 20:31 | 46.73564 | 7.20477 | 24771 ft | 433 kts | 48° |
| 2026-04-25 20:31 | 46.75462 | 7.23928 | 25400 ft | 439 kts | 48° |
| 2026-04-25 20:31 | 46.77385 | 7.27429 | 25997 ft | 445 kts | 48° |
| 2026-04-25 20:31 | 46.79333 | 7.30959 | 26591 ft | 449 kts | 48° |
| 2026-04-25 20:32 | 46.81307 | 7.34525 | 27205 ft | 454 kts | 48° |
| 2026-04-25 20:32 | 46.83297 | 7.38124 | 27891 ft | 456 kts | 48° |
| 2026-04-25 20:32 | 46.84639 | 7.40555 | 28282 ft | 458 kts | 48° |
| 2026-04-25 20:32 | 46.87298 | 7.45400 | 28945 ft | 464 kts | 48° |
| 2026-04-25 20:33 | 46.89349 | 7.49068 | 29421 ft | 468 kts | 45° |
| 2026-04-25 20:33 | 46.91687 | 7.52476 | 29881 ft | 469 kts | 38° |
| 2026-04-25 20:33 | 46.94118 | 7.55569 | 30307 ft | 472 kts | 38° |
| 2026-04-25 20:33 | 46.94960 | 7.56630 | 30448 ft | 473 kts | 38° |
| 2026-04-25 20:34 | 46.99118 | 7.61874 | 31129 ft | 476 kts | 38° |
| 2026-04-25 20:34 | 47.01627 | 7.65065 | 31498 ft | 479 kts | 38° |
| 2026-04-25 20:34 | 47.04143 | 7.68289 | 31809 ft | 481 kts | 38° |
| 2026-04-25 20:34 | 47.06661 | 7.71535 | 32121 ft | 484 kts | 38° |
| 2026-04-25 20:35 | 47.09197 | 7.74818 | 32411 ft | 486 kts | 39° |
| 2026-04-25 20:35 | 47.11733 | 7.78110 | 32728 ft | 487 kts | 39° |
| 2026-04-25 20:35 | 47.14272 | 7.81413 | 33142 ft | 487 kts | 39° |
| 2026-04-25 20:35 | 47.16808 | 7.84711 | 33549 ft | 486 kts | 39° |
| 2026-04-25 20:36 | 47.19332 | 7.87998 | 34006 ft | 485 kts | 39° |
| 2026-04-25 20:36 | 47.21852 | 7.91283 | 34415 ft | 483 kts | 39° |
| 2026-04-25 20:36 | 47.24364 | 7.94562 | 34786 ft | 483 kts | 39° |
| 2026-04-25 20:36 | 47.26873 | 7.97843 | 35147 ft | 482 kts | 39° |
| 2026-04-25 20:37 | 47.29381 | 8.01126 | 35511 ft | 482 kts | 39° |
| 2026-04-25 20:37 | 47.31880 | 8.04403 | 35881 ft | 481 kts | 39° |
| 2026-04-25 20:37 | 47.34379 | 8.07684 | 36252 ft | 480 kts | 39° |
| 2026-04-25 20:37 | 47.36868 | 8.10959 | 36643 ft | 479 kts | 39° |
| 2026-04-25 20:38 | 47.39355 | 8.14234 | 36995 ft | 479 kts | 39° |
| 2026-04-25 20:38 | 47.41835 | 8.17504 | 37356 ft | 478 kts | 39° |
| 2026-04-25 20:38 | 47.44310 | 8.20771 | 37724 ft | 477 kts | 39° |
| 2026-04-25 20:38 | 47.46791 | 8.24050 | 38056 ft | 477 kts | 39° |
| 2026-04-25 20:39 | 47.51765 | 8.30636 | 38153 ft | 482 kts | 39° |
| 2026-04-25 20:39 | 47.55055 | 8.35006 | 38136 ft | 477 kts | 39° |
| 2026-04-25 20:40 | 47.61625 | 8.43753 | 38155 ft | 473 kts | 39° |
| 2026-04-25 20:40 | 47.66501 | 8.50263 | 38158 ft | 472 kts | 39° |
| 2026-04-25 20:41 | 47.71417 | 8.56839 | 38286 ft | 479 kts | 39° |
| 2026-04-25 20:41 | 47.73897 | 8.60164 | 38510 ft | 480 kts | 39° |
| 2026-04-25 20:41 | 47.76374 | 8.63491 | 38835 ft | 479 kts | 39° |
| 2026-04-25 20:42 | 47.78843 | 8.66814 | 39060 ft | 479 kts | 39° |
| 2026-04-25 20:42 | 47.81316 | 8.70145 | 39100 ft | 480 kts | 39° |
| 2026-04-25 20:42 | 47.86238 | 8.76789 | 39149 ft | 474 kts | 39° |
| 2026-04-25 20:43 | 47.91114 | 8.83388 | 39159 ft | 474 kts | 39° |
| 2026-04-25 20:43 | 47.95990 | 8.90001 | 39153 ft | 474 kts | 39° |
| 2026-04-25 20:44 | 48.00862 | 8.96629 | 39157 ft | 474 kts | 39° |
| 2026-04-25 20:44 | 48.04911 | 9.02151 | 39150 ft | 474 kts | 39° |
| 2026-04-25 20:45 | 48.09772 | 9.08795 | 39148 ft | 473 kts | 39° |
| 2026-04-25 20:45 | 48.15622 | 9.16073 | 39142 ft | 466 kts | 26° |
| 2026-04-25 20:46 | 48.21632 | 9.19330 | 39152 ft | 457 kts | 5° |
| 2026-04-25 20:46 | 48.26915 | 9.20188 | 39152 ft | 456 kts | 2° |
| 2026-04-25 20:47 | 48.33245 | 9.21118 | 39152 ft | 458 kts | 2° |
| 2026-04-25 20:47 | 48.39586 | 9.22139 | 39140 ft | 458 kts | 3° |
| 2026-04-25 20:48 | 48.45924 | 9.23208 | 39130 ft | 458 kts | 3° |
| 2026-04-25 20:48 | 48.52248 | 9.24281 | 39135 ft | 458 kts | 3° |
| 2026-04-25 20:49 | 48.58619 | 9.25359 | 39360 ft | 461 kts | 3° |
| 2026-04-25 20:49 | 48.61810 | 9.25901 | 39533 ft | 462 kts | 3° |
| 2026-04-25 20:49 | 48.65001 | 9.26418 | 39691 ft | 462 kts | 3° |
| 2026-04-25 20:50 | 48.68207 | 9.26908 | 39820 ft | 464 kts | 2° |
| 2026-04-25 20:50 | 48.71421 | 9.27389 | 39947 ft | 465 kts | 2° |
| 2026-04-25 20:50 | 48.77884 | 9.28355 | 40091 ft | 468 kts | 2° |
| 2026-04-25 20:51 | 48.84368 | 9.29341 | 40120 ft | 468 kts | 2° |
| 2026-04-25 20:51 | 48.90832 | 9.30333 | 40131 ft | 467 kts | 2° |
| 2026-04-25 20:52 | 48.96199 | 9.31160 | 40143 ft | 466 kts | 2° |
| 2026-04-25 20:52 | 49.03695 | 9.32317 | 40133 ft | 465 kts | 2° |
| 2026-04-25 20:53 | 49.10174 | 9.33320 | 40137 ft | 465 kts | 2° |
| 2026-04-25 20:53 | 49.16606 | 9.34316 | 40142 ft | 464 kts | 2° |
| 2026-04-25 20:54 | 49.23034 | 9.35428 | 40131 ft | 465 kts | 3° |
| 2026-04-25 20:54 | 49.29452 | 9.36658 | 40132 ft | 465 kts | 4° |
| 2026-04-25 20:55 | 49.35835 | 9.37878 | 40131 ft | 466 kts | 4° |
| 2026-04-25 20:55 | 49.42271 | 9.39086 | 40143 ft | 466 kts | 3° |
| 2026-04-25 20:56 | 49.48722 | 9.40295 | 40139 ft | 467 kts | 3° |
| 2026-04-25 20:56 | 49.55176 | 9.41509 | 40137 ft | 464 kts | 3° |
| 2026-04-25 20:57 | 49.61513 | 9.42709 | 40139 ft | 455 kts | 3° |
| 2026-04-25 20:57 | 49.67800 | 9.43895 | 40141 ft | 455 kts | 3° |
| 2026-04-25 20:58 | 49.74096 | 9.45084 | 40142 ft | 456 kts | 3° |
| 2026-04-25 20:58 | 49.80399 | 9.46280 | 40145 ft | 457 kts | 3° |
| 2026-04-25 20:59 | 49.86709 | 9.47482 | 40138 ft | 456 kts | 3° |
| 2026-04-25 20:59 | 49.92995 | 9.48683 | 40147 ft | 455 kts | 3° |
| 2026-04-25 21:00 | 49.98212 | 9.49680 | 40140 ft | 454 kts | 3° |
| 2026-04-25 21:01 | 50.08666 | 9.51688 | 40135 ft | 453 kts | 3° |
| 2026-04-25 21:01 | 50.14913 | 9.52892 | 40142 ft | 452 kts | 3° |
| 2026-04-25 21:02 | 50.21159 | 9.54098 | 40139 ft | 452 kts | 3° |
| 2026-04-25 21:02 | 50.27392 | 9.55306 | 40149 ft | 452 kts | 3° |
| 2026-04-25 21:03 | 50.33632 | 9.56518 | 40139 ft | 452 kts | 3° |
| 2026-04-25 21:03 | 50.39873 | 9.57733 | 40137 ft | 452 kts | 3° |
| 2026-04-25 21:04 | 50.46108 | 9.58950 | 40137 ft | 452 kts | 3° |
| 2026-04-25 21:04 | 50.52347 | 9.60172 | 40151 ft | 451 kts | 3° |
| 2026-04-25 21:05 | 50.58565 | 9.61393 | 40134 ft | 450 kts | 3° |
| 2026-04-25 21:05 | 50.64775 | 9.62615 | 40130 ft | 450 kts | 3° |
| 2026-04-25 21:06 | 50.70982 | 9.63839 | 40132 ft | 449 kts | 3° |
| 2026-04-25 21:06 | 50.77136 | 9.65057 | 40124 ft | 449 kts | 3° |
| 2026-04-25 21:07 | 50.83341 | 9.66288 | 40136 ft | 449 kts | 3° |
| 2026-04-25 21:07 | 50.89545 | 9.67522 | 40136 ft | 449 kts | 3° |
| 2026-04-25 21:08 | 50.95747 | 9.68758 | 40143 ft | 450 kts | 3° |
| 2026-04-25 21:08 | 51.01958 | 9.70001 | 40137 ft | 449 kts | 3° |
| 2026-04-25 21:09 | 51.11254 | 9.71867 | 40129 ft | 449 kts | 3° |
| 2026-04-25 21:09 | 51.17449 | 9.73114 | 40144 ft | 448 kts | 3° |
| 2026-04-25 21:10 | 51.23639 | 9.74364 | 40138 ft | 448 kts | 3° |
| 2026-04-25 21:10 | 51.29820 | 9.75575 | 40140 ft | 448 kts | 2° |
| 2026-04-25 21:11 | 51.36010 | 9.76693 | 40136 ft | 447 kts | 2° |
| 2026-04-25 21:11 | 51.42197 | 9.77806 | 40158 ft | 447 kts | 2° |
| 2026-04-25 21:12 | 51.48383 | 9.78935 | 40130 ft | 447 kts | 3° |
| 2026-04-25 21:12 | 51.53515 | 9.79881 | 40138 ft | 447 kts | 3° |
| 2026-04-25 21:13 | 51.60697 | 9.81209 | 40137 ft | 447 kts | 3° |
| 2026-04-25 21:13 | 51.66870 | 9.82354 | 40148 ft | 447 kts | 3° |
| 2026-04-25 21:14 | 51.73041 | 9.83503 | 40137 ft | 443 kts | 3° |
| 2026-04-25 21:14 | 51.79059 | 9.84631 | 39672 ft | 431 kts | 3° |
| 2026-04-25 21:15 | 51.82033 | 9.85187 | 39142 ft | 430 kts | 3° |
| 2026-04-25 21:15 | 51.85006 | 9.85741 | 38472 ft | 430 kts | 3° |
| 2026-04-25 21:15 | 51.87984 | 9.86297 | 37746 ft | 431 kts | 3° |
| 2026-04-25 21:15 | 51.90961 | 9.86854 | 37019 ft | 431 kts | 3° |
| 2026-04-25 21:16 | 51.93943 | 9.87413 | 36302 ft | 432 kts | 3° |
| 2026-04-25 21:16 | 51.96929 | 9.87973 | 35547 ft | 433 kts | 3° |
| 2026-04-25 21:16 | 51.99931 | 9.88537 | 34724 ft | 436 kts | 3° |
| 2026-04-25 21:16 | 52.02952 | 9.89106 | 33833 ft | 439 kts | 3° |
| 2026-04-25 21:17 | 52.05996 | 9.89681 | 32843 ft | 441 kts | 3° |
| 2026-04-25 21:17 | 52.09057 | 9.90260 | 31862 ft | 444 kts | 2° |
| 2026-04-25 21:17 | 52.12133 | 9.90843 | 30888 ft | 447 kts | 2° |
| 2026-04-25 21:17 | 52.15209 | 9.91427 | 30128 ft | 444 kts | 2° |
| 2026-04-25 21:18 | 52.18265 | 9.92010 | 29247 ft | 441 kts | 2° |
| 2026-04-25 21:18 | 52.21297 | 9.92589 | 28458 ft | 437 kts | 2° |
| 2026-04-25 21:18 | 52.24305 | 9.93164 | 27707 ft | 433 kts | 2° |
| 2026-04-25 21:18 | 52.27279 | 9.93732 | 26962 ft | 429 kts | 2° |
| 2026-04-25 21:19 | 52.30227 | 9.94296 | 26222 ft | 425 kts | 2° |
| 2026-04-25 21:19 | 52.33147 | 9.94854 | 25621 ft | 419 kts | 2° |
| 2026-04-25 21:19 | 52.36057 | 9.95410 | 25441 ft | 420 kts | 2° |
| 2026-04-25 21:19 | 52.38938 | 9.95963 | 25245 ft | 416 kts | 2° |
| 2026-04-25 21:20 | 52.41798 | 9.96511 | 25016 ft | 411 kts | 2° |
| 2026-04-25 21:20 | 52.42758 | 9.96696 | 24824 ft | 410 kts | 2° |
| 2026-04-25 21:20 | 52.47408 | 9.97593 | 23591 ft | 394 kts | 2° |
| 2026-04-25 21:20 | 52.50090 | 9.98116 | 22207 ft | 383 kts | 2° |
| 2026-04-25 21:21 | 52.52716 | 9.98625 | 20739 ft | 378 kts | 2° |
| 2026-04-25 21:21 | 52.55362 | 9.99131 | 19796 ft | 382 kts | 2° |
| 2026-04-25 21:21 | 52.57985 | 9.99635 | 19146 ft | 377 kts | 2° |
| 2026-04-25 21:21 | 52.60577 | 10.00136 | 18512 ft | 373 kts | 1° |
| 2026-04-25 21:22 | 52.63145 | 10.00634 | 17783 ft | 370 kts | 1° |
| 2026-04-25 21:22 | 52.65688 | 10.01128 | 17119 ft | 365 kts | 1° |
| 2026-04-25 21:22 | 52.68193 | 10.01615 | 16492 ft | 360 kts | 1° |
| 2026-04-25 21:22 | 52.70667 | 10.02097 | 15883 ft | 356 kts | 1° |
| 2026-04-25 21:23 | 52.73115 | 10.02573 | 15291 ft | 352 kts | 1° |
| 2026-04-25 21:23 | 52.75537 | 10.03045 | 14712 ft | 349 kts | 1° |
| 2026-04-25 21:23 | 52.77904 | 10.03506 | 14145 ft | 346 kts | 1° |
| 2026-04-25 21:23 | 52.80283 | 10.03971 | 13533 ft | 343 kts | 1° |
| 2026-04-25 21:24 | 52.82641 | 10.04432 | 12918 ft | 340 kts | 1° |
| 2026-04-25 21:24 | 52.85005 | 10.04895 | 12377 ft | 335 kts | 1° |
| 2026-04-25 21:24 | 52.87273 | 10.05339 | 11824 ft | 331 kts | 1° |
| 2026-04-25 21:24 | 52.89555 | 10.05788 | 11274 ft | 328 kts | 1° |
| 2026-04-25 21:25 | 52.91797 | 10.06230 | 10921 ft | 319 kts | 1° |
| 2026-04-25 21:25 | 52.93948 | 10.06659 | 10777 ft | 304 kts | 1° |
| 2026-04-25 21:25 | 52.96002 | 10.07069 | 10638 ft | 291 kts | 1° |
| 2026-04-25 21:25 | 52.97962 | 10.07460 | 10503 ft | 273 kts | 0° |
| 2026-04-25 21:26 | 52.99766 | 10.07825 | 10390 ft | 252 kts | 0° |
| 2026-04-25 21:26 | 53.01464 | 10.08161 | 10290 ft | 240 kts | 359° |
| 2026-04-25 21:26 | 53.03087 | 10.08480 | 10192 ft | 230 kts | 359° |
| 2026-04-25 21:26 | 53.04652 | 10.08786 | 10031 ft | 226 kts | 359° |
| 2026-04-25 21:27 | 53.06243 | 10.09089 | 9770 ft | 235 kts | 359° |
| 2026-04-25 21:27 | 53.07897 | 10.09404 | 9484 ft | 242 kts | 359° |
| 2026-04-25 21:27 | 53.09562 | 10.09730 | 9181 ft | 240 kts | 360° |
| 2026-04-25 21:27 | 53.11207 | 10.10057 | 8893 ft | 237 kts | 0° |
| 2026-04-25 21:28 | 53.12836 | 10.10380 | 8602 ft | 234 kts | 0° |
| 2026-04-25 21:28 | 53.14441 | 10.10699 | 8319 ft | 231 kts | 0° |
| 2026-04-25 21:28 | 53.16026 | 10.11015 | 8050 ft | 228 kts | 0° |
| 2026-04-25 21:28 | 53.17590 | 10.11326 | 7777 ft | 225 kts | 0° |
| 2026-04-25 21:29 | 53.19136 | 10.11655 | 7510 ft | 224 kts | 5° |
| 2026-04-25 21:29 | 53.20590 | 10.12803 | 7244 ft | 248 kts | 33° |
| 2026-04-25 21:29 | 53.21695 | 10.15158 | 6979 ft | 265 kts | 50° |
| 2026-04-25 21:29 | 53.22598 | 10.17844 | 6750 ft | 265 kts | 56° |
| 2026-04-25 21:30 | 53.23328 | 10.20659 | 6583 ft | 261 kts | 59° |
| 2026-04-25 21:30 | 53.23988 | 10.23436 | 6479 ft | 254 kts | 60° |
| 2026-04-25 21:30 | 53.24628 | 10.26170 | 6382 ft | 253 kts | 60° |
| 2026-04-25 21:30 | 53.25049 | 10.27975 | 6263 ft | 252 kts | 60° |
| 2026-04-25 21:31 | 53.26125 | 10.31205 | 5945 ft | 217 kts | 28° |
| 2026-04-25 21:31 | 53.27425 | 10.31909 | 5945 ft | 190 kts | 347° |
| 2026-04-25 21:31 | 53.28540 | 10.30817 | 5972 ft | 197 kts | 310° |
| 2026-04-25 21:31 | 53.29463 | 10.29038 | 5996 ft | 203 kts | 326° |
| 2026-04-25 21:32 | 53.30688 | 10.28107 | 5904 ft | 185 kts | 336° |
| 2026-04-25 21:32 | 53.31811 | 10.27222 | 5798 ft | 172 kts | 333° |
| 2026-04-25 21:32 | 53.32505 | 10.26627 | 5693 ft | 167 kts | 332° |
| 2026-04-25 21:32 | 53.33510 | 10.25743 | 5505 ft | 160 kts | 332° |
| 2026-04-25 21:33 | 53.34486 | 10.24865 | 5244 ft | 159 kts | 332° |
| 2026-04-25 21:33 | 53.35454 | 10.23982 | 4946 ft | 158 kts | 332° |
| 2026-04-25 21:33 | 53.36407 | 10.23099 | 4652 ft | 156 kts | 332° |
| 2026-04-25 21:33 | 53.37391 | 10.22181 | 4427 ft | 168 kts | 332° |
| 2026-04-25 21:34 | 53.38404 | 10.21227 | 4209 ft | 168 kts | 332° |
| 2026-04-25 21:34 | 53.39421 | 10.20263 | 4119 ft | 166 kts | 332° |
| 2026-04-25 21:34 | 53.40392 | 10.19339 | 3998 ft | 155 kts | 332° |
| 2026-04-25 21:34 | 53.41304 | 10.18470 | 3929 ft | 148 kts | 332° |
| 2026-04-25 21:35 | 53.42197 | 10.17618 | 3864 ft | 148 kts | 332° |
| 2026-04-25 21:35 | 53.43094 | 10.16762 | 3802 ft | 149 kts | 332° |
| 2026-04-25 21:35 | 53.44011 | 10.15942 | 3758 ft | 149 kts | 334° |
| 2026-04-25 21:35 | 53.44940 | 10.15149 | 3699 ft | 150 kts | 334° |
| 2026-04-25 21:36 | 53.45875 | 10.14352 | 3608 ft | 153 kts | 334° |
| 2026-04-25 21:36 | 53.46821 | 10.13543 | 3442 ft | 150 kts | 334° |
| 2026-04-25 21:36 | 53.47739 | 10.12758 | 3277 ft | 147 kts | 334° |
| 2026-04-25 21:36 | 53.48649 | 10.11980 | 3116 ft | 147 kts | 334° |
| 2026-04-25 21:37 | 53.49563 | 10.11198 | 2937 ft | 147 kts | 333° |
| 2026-04-25 21:37 | 53.50166 | 10.10682 | 2808 ft | 147 kts | 333° |
| 2026-04-25 21:37 | 53.51369 | 10.09651 | 2576 ft | 145 kts | 333° |
| 2026-04-25 21:37 | 53.52269 | 10.08877 | 2388 ft | 146 kts | 332° |
| 2026-04-25 21:38 | 53.53172 | 10.08101 | 2177 ft | 146 kts | 332° |
| 2026-04-25 21:38 | 53.54072 | 10.07327 | 1968 ft | 145 kts | 332° |
| 2026-04-25 21:38 | 53.54954 | 10.06570 | 1874 ft | 141 kts | 332° |
| 2026-04-25 21:38 | 53.55821 | 10.05824 | 1786 ft | 140 kts | 332° |
| 2026-04-25 21:39 | 53.56676 | 10.05088 | 1518 ft | 139 kts | 332° |
| 2026-04-25 21:39 | 53.57545 | 10.04343 | 1297 ft | 141 kts | 331° |
| 2026-04-25 21:39 | 53.58411 | 10.03600 | 1034 ft | 135 kts | 330° |
| 2026-04-25 21:39 | 53.59174 | 10.02931 | 797 ft | 108 kts | 330° |
| 2026-04-25 21:40 | 53.59833 | 10.02354 | 647 ft | 110 kts | 329° |
| 2026-04-25 21:40 | 53.60499 | 10.01787 | 541 ft | 108 kts | 330° |
| 2026-04-25 21:40 | 53.61204 | 10.01188 | 466 ft | 119 kts | 330° |
| 2026-04-25 21:40 | 53.61970 | 10.00521 | 279 ft | 126 kts | 330° |
| 2026-04-25 21:41 | 53.62744 | 9.99849 | 113 ft | 123 kts | 329° |
| 2026-04-25 21:41 | 53.63466 | 9.99222 | 50 ft | 106 kts | 333° |
| 2026-04-25 21:41 | 53.63957 | 9.98797 | 49 ft | 53 kts | 332° |
| 2026-04-25 21:41 | 53.64221 | 9.98570 | 51 ft | 38 kts | 334° |
| 2026-04-25 21:42 | 53.64435 | 9.98403 | 55 ft | 30 kts | 342° |
| 2026-04-25 21:42 | 53.64621 | 9.98378 | 61 ft | 20 kts | 6° |
| 2026-04-25 21:42 | 53.64638 | 9.98382 | 60 ft | 1 kts | 7° |
| 2026-04-25 21:42 | 53.64646 | 9.98383 | 60 ft | 2 kts | 7° |
| 2026-04-25 21:43 | 53.64670 | 9.98393 | 59 ft | 6 kts | 18° |
| 2026-04-25 21:43 | 53.64700 | 9.98439 | 54 ft | 6 kts | 64° |
| 2026-04-25 21:43 | 53.64684 | 9.98502 | 51 ft | 6 kts | 133° |
| 2026-04-25 21:43 | 53.64649 | 9.98542 | 50 ft | 6 kts | 148° |
| 2026-04-25 21:44 | 53.64606 | 9.98582 | 49 ft | 9 kts | 152° |
| 2026-04-25 21:44 | 53.64533 | 9.98645 | 49 ft | 17 kts | 153° |
| 2026-04-25 21:44 | 53.64295 | 9.98851 | 47 ft | 19 kts | 153° |
| 2026-04-25 21:45 | 53.64175 | 9.98953 | 47 ft | 19 kts | 153° |
| 2026-04-25 21:45 | 53.64096 | 9.99022 | 50 ft | 19 kts | 152° |
| 2026-04-25 21:45 | 53.63937 | 9.99161 | 48 ft | 19 kts | 153° |
| 2026-04-25 21:45 | 53.63820 | 9.99270 | 48 ft | 19 kts | 145° |
| 2026-04-25 21:46 | 53.63726 | 9.99431 | 51 ft | 19 kts | 126° |
| 2026-04-25 21:46 | 53.63652 | 9.99606 | 49 ft | 2 kts | 125° |
| 2026-04-25 21:46 | 53.63650 | 9.99610 | 49 ft | 3 kts | 125° |
| 2026-04-25 21:46 | 53.63625 | 9.99670 | 48 ft | 7 kts | 126° |
| 2026-04-25 21:47 | 53.63597 | 9.99733 | 54 ft | 7 kts | 126° |
| 2026-04-25 21:47 | 53.63551 | 9.99839 | 48 ft | 16 kts | 126° |
| 2026-04-25 21:47 | 53.63483 | 9.99993 | 49 ft | 16 kts | 128° |
| 2026-04-25 21:47 | 53.63445 | 10.00086 | 48 ft | 9 kts | 113° |
| 2026-04-25 21:48 | 53.63434 | 10.00184 | 53 ft | 9 kts | 99° |
| 2026-04-25 21:48 | 53.63431 | 10.00211 | 50 ft | 0 kts | 99° |
| 2026-04-25 21:48 | 53.63426 | 10.00260 | 48 ft | 8 kts | 100° |
| 2026-04-25 21:48 | 53.63420 | 10.00317 | 53 ft | 3 kts | 100° |
| 2026-04-25 21:49 | 53.63418 | 10.00331 | 53 ft | 3 kts | 100° |
| 2026-04-25 21:49 | 53.63417 | 10.00340 | 53 ft | 0 kts | 100° |